createdAt,value
2023-03-22T00:00:26.050Z,78.50
2023-03-22T00:02:58.385Z,78.80
2023-03-22T00:05:30.623Z,78.90
2023-03-22T00:08:01.643Z,78.70
2023-03-22T00:10:32.416Z,78.60
2023-03-22T00:13:03.814Z,78.80
2023-03-22T00:15:35.178Z,79.00
2023-03-22T00:18:07.069Z,79.00
2023-03-22T00:20:39.420Z,79.20
2023-03-22T00:23:10.495Z,78.80
2023-03-22T00:25:41.416Z,79.00
2023-03-22T00:28:12.322Z,79.20
2023-03-22T00:30:43.207Z,79.00
2023-03-22T00:33:14.040Z,78.80
2023-03-22T00:35:53.201Z,78.90
2023-03-22T00:38:39.538Z,78.70
2023-03-22T00:40:56.878Z,78.80
2023-03-22T00:43:28.473Z,78.80
2023-03-22T00:45:59.324Z,78.90
2023-03-22T00:48:30.770Z,79.00
2023-03-22T00:51:02.186Z,78.90
2023-03-22T00:53:34.146Z,78.90
2023-03-22T00:56:05.820Z,79.40
2023-03-22T00:58:36.945Z,79.10
2023-03-22T01:01:08.672Z,78.90
2023-03-22T01:03:39.945Z,78.50
2023-03-22T01:06:13.496Z,78.90
2023-03-22T01:08:44.219Z,78.80
2023-03-22T01:11:15.325Z,78.40
2023-03-22T01:13:46.724Z,78.60
2023-03-22T01:16:17.682Z,77.80
2023-03-22T01:18:48.929Z,78.30
2023-03-22T01:21:19.916Z,78.20
2023-03-22T01:23:51.011Z,77.20
2023-03-22T01:26:21.909Z,78.10
2023-03-22T01:28:52.985Z,78.10
2023-03-22T01:31:24.100Z,78.00
2023-03-22T01:33:55.624Z,78.00
2023-03-22T01:36:27.178Z,77.60
2023-03-22T01:38:58.328Z,77.90
2023-03-22T01:41:29.454Z,77.60
2023-03-22T01:44:14.869Z,77.20
2023-03-22T01:46:47.753Z,77.00
2023-03-22T01:49:24.279Z,77.40
2023-03-22T01:51:55.393Z,77.10
2023-03-22T01:54:41.706Z,76.30
2023-03-22T01:57:13.094Z,76.50
2023-03-22T01:59:46.126Z,76.90
2023-03-22T02:02:18.947Z,76.40
2023-03-22T02:04:54.947Z,75.70
2023-03-22T02:07:27.746Z,75.10
2023-03-22T02:09:59.232Z,74.90
2023-03-22T02:13:06.539Z,74.80
2023-03-22T02:15:52.707Z,73.50
2023-03-22T02:18:52.359Z,74.00
2023-03-22T02:21:42.109Z,72.70
2023-03-22T02:24:36.121Z,72.00
2023-03-22T02:27:31.127Z,71.60
2023-03-22T02:30:04.724Z,71.60
2023-03-22T02:33:06.631Z,71.50
2023-03-22T02:35:50.068Z,71.50
2023-03-22T02:38:34.007Z,69.70
2023-03-22T02:41:16.753Z,69.30
2023-03-22T02:44:08.547Z,68.50
2023-03-22T02:46:48.015Z,68.50
2023-03-22T02:49:43.210Z,68.10
2023-03-22T02:52:19.430Z,68.60
2023-03-22T02:58:31.137Z,67.50
2023-03-22T03:01:07.628Z,66.00
2023-03-22T03:03:38.695Z,66.10
2023-03-22T03:06:12.523Z,65.30
2023-03-22T03:08:45.248Z,65.10
2023-03-22T03:11:16.360Z,63.40
2023-03-22T03:13:51.569Z,62.10
2023-03-22T03:16:26.409Z,62.00
2023-03-22T03:19:21.041Z,61.70
2023-03-22T03:21:54.658Z,61.50
2023-03-22T03:24:33.978Z,58.80
2023-03-22T03:27:22.780Z,59.50
2023-03-22T03:30:08.544Z,59.50
2023-03-22T03:32:43.145Z,59.40
2023-03-22T03:35:38.685Z,58.30
2023-03-22T03:38:14.922Z,58.60
2023-03-22T03:40:48.230Z,58.30
2023-03-22T03:43:22.720Z,57.70
2023-03-22T03:45:54.474Z,58.00
2023-03-22T03:48:31.178Z,57.50
2023-03-22T03:51:03.601Z,57.70
2023-03-22T03:53:34.850Z,57.40
2023-03-22T03:56:06.049Z,57.10
2023-03-22T03:58:37.035Z,56.30
2023-03-22T04:01:08.423Z,55.90
2023-03-22T04:03:39.426Z,54.90
2023-03-22T04:06:10.875Z,55.80
2023-03-22T04:08:42.479Z,54.90
2023-03-22T04:11:13.565Z,54.80
2023-03-22T04:13:44.603Z,55.30
2023-03-22T04:16:15.572Z,55.10
2023-03-22T04:18:47.097Z,55.30
2023-03-22T04:21:18.122Z,54.50
2023-03-22T04:23:49.397Z,54.50
2023-03-22T04:26:20.597Z,54.60
2023-03-22T04:28:51.549Z,54.00
2023-03-22T04:31:22.693Z,53.40
2023-03-22T04:33:55.173Z,52.70
2023-03-22T04:36:27.262Z,52.80
2023-03-22T04:38:58.204Z,53.30
2023-03-22T04:41:30.294Z,53.00
2023-03-22T04:44:02.777Z,52.80
2023-03-22T04:46:45.671Z,52.10
2023-03-22T04:49:16.919Z,52.70
2023-03-22T04:51:48.103Z,51.80
2023-03-22T04:54:19.223Z,51.30
2023-03-22T04:56:50.727Z,51.30
2023-03-22T04:59:22.060Z,51.00
2023-03-22T05:01:54.169Z,50.90
2023-03-22T05:04:26.885Z,50.30
2023-03-22T05:06:58.163Z,49.40
2023-03-22T05:09:29.849Z,49.60
2023-03-22T05:12:01.052Z,48.20
2023-03-22T05:14:32.360Z,47.80
2023-03-22T05:17:05.181Z,47.70
2023-03-22T05:19:36.391Z,48.20
2023-03-22T05:22:07.539Z,47.80
2023-03-22T05:24:38.788Z,46.80
2023-03-22T05:27:11.394Z,47.20
2023-03-22T05:29:43.743Z,46.60
2023-03-22T05:32:15.507Z,46.30
2023-03-22T05:34:46.687Z,46.10
2023-03-22T05:37:17.967Z,45.80
2023-03-22T05:39:49.099Z,44.50
2023-03-22T05:42:20.063Z,44.90
2023-03-22T05:44:51.146Z,44.60
2023-03-22T05:47:22.191Z,44.80
2023-03-22T05:49:53.169Z,45.70
2023-03-22T05:52:24.203Z,45.60
2023-03-22T05:55:15.149Z,44.80
2023-03-22T05:57:47.796Z,44.30
2023-03-22T06:00:40.649Z,44.20
2023-03-22T06:03:12.055Z,42.80
2023-03-22T06:05:44.284Z,43.80
2023-03-22T06:08:15.828Z,43.50
2023-03-22T06:10:47.383Z,43.80
2023-03-22T06:13:18.906Z,43.20
2023-03-22T06:15:50.265Z,42.70
2023-03-22T06:18:21.624Z,42.60
2023-03-22T06:20:52.785Z,42.60
2023-03-22T06:23:23.779Z,42.80
2023-03-22T06:25:55.092Z,42.90
2023-03-22T06:28:27.603Z,43.00
2023-03-22T06:30:58.790Z,43.30
2023-03-22T06:33:30.054Z,43.50
2023-03-22T06:36:02.561Z,43.60
2023-03-22T06:38:33.852Z,43.20
2023-03-22T06:41:05.457Z,43.70
2023-03-22T06:43:36.513Z,43.20
2023-03-22T06:46:08.024Z,43.50
2023-03-22T06:48:39.503Z,43.50
2023-03-22T06:51:11.775Z,43.60
2023-03-22T06:53:42.745Z,43.30
2023-03-22T06:56:14.073Z,43.50
2023-03-22T06:58:45.342Z,43.90
2023-03-22T07:01:16.598Z,43.70
2023-03-22T07:03:48.046Z,43.70
2023-03-22T07:06:19.551Z,44.00
2023-03-22T07:08:52.018Z,43.40
2023-03-22T07:11:23.508Z,43.60
2023-03-22T07:13:55.477Z,43.40
2023-03-22T07:16:26.650Z,43.80
2023-03-22T07:18:58.352Z,43.50
2023-03-22T07:21:29.306Z,43.70
2023-03-22T07:24:00.585Z,43.40
2023-03-22T07:26:31.912Z,43.60
2023-03-22T07:29:04.997Z,42.90
2023-03-22T07:31:39.292Z,42.80
2023-03-22T07:34:11.080Z,42.80
2023-03-22T07:36:42.153Z,42.80
2023-03-22T07:39:13.244Z,42.50
2023-03-22T07:42:02.465Z,42.00
2023-03-22T07:44:33.860Z,42.30
2023-03-22T07:47:04.954Z,42.40
2023-03-22T07:49:35.982Z,42.30
2023-03-22T07:52:07.610Z,43.70
2023-03-22T07:54:38.790Z,42.00
2023-03-22T07:57:10.014Z,42.50
2023-03-22T07:59:41.087Z,42.50
2023-03-22T08:02:13.850Z,42.30
2023-03-22T08:04:47.235Z,42.00
2023-03-22T08:07:19.650Z,42.50
2023-03-22T08:09:51.334Z,42.30
2023-03-22T08:12:42.600Z,41.40
2023-03-22T08:15:14.435Z,41.40
2023-03-22T08:17:46.872Z,41.70
2023-03-22T08:20:19.879Z,42.20
2023-03-22T08:22:50.979Z,42.10
2023-03-22T08:25:22.712Z,42.20
2023-03-22T08:27:54.745Z,42.70
2023-03-22T08:30:25.926Z,42.00
2023-03-22T08:32:57.502Z,42.20
2023-03-22T08:35:30.227Z,42.50
2023-03-22T08:38:02.294Z,42.30
2023-03-22T08:40:33.670Z,42.90
2023-03-22T08:43:04.741Z,42.90
2023-03-22T08:45:35.656Z,42.80
2023-03-22T08:48:08.875Z,42.40
2023-03-22T08:50:40.878Z,42.50
2023-03-22T08:53:12.252Z,42.90
2023-03-22T08:55:44.707Z,42.60
2023-03-22T08:58:24.251Z,42.30
2023-03-22T09:00:55.783Z,42.50
2023-03-22T09:03:27.356Z,42.80
2023-03-22T09:05:58.350Z,42.50
2023-03-22T09:08:30.201Z,42.50
2023-03-22T09:11:01.755Z,42.40
2023-03-22T09:13:33.459Z,42.70
2023-03-22T09:16:05.400Z,43.00
2023-03-22T09:18:36.386Z,43.20
2023-03-22T09:21:09.463Z,42.90
2023-03-22T09:23:43.065Z,43.20
2023-03-22T09:26:20.178Z,43.40
2023-03-22T09:28:51.840Z,43.70
2023-03-22T09:31:23.224Z,43.30
2023-03-22T09:33:54.533Z,43.60
2023-03-22T09:36:25.585Z,44.10
2023-03-22T09:38:57.696Z,44.30
2023-03-22T09:41:42.887Z,44.20
2023-03-22T09:44:23.555Z,44.00
2023-03-22T09:46:56.759Z,43.90
2023-03-22T09:49:30.209Z,43.90
2023-03-22T09:52:02.056Z,43.60
2023-03-22T09:54:43.419Z,43.60
2023-03-22T09:57:32.973Z,43.20
2023-03-22T10:00:13.814Z,43.10
2023-03-22T10:02:58.969Z,43.50
2023-03-22T10:05:44.180Z,43.00
2023-03-22T10:08:29.344Z,43.30
2023-03-22T10:11:02.405Z,43.30
2023-03-22T10:13:38.430Z,43.50
2023-03-22T10:16:12.168Z,43.00
2023-03-22T10:18:50.353Z,43.40
2023-03-22T10:21:23.053Z,43.20
2023-03-22T10:24:08.306Z,43.40
2023-03-22T10:26:47.352Z,43.50
2023-03-22T10:29:39.015Z,43.40
2023-03-22T10:32:21.811Z,43.70
2023-03-22T10:34:54.051Z,43.80
2023-03-22T10:37:27.643Z,43.30
2023-03-22T10:40:00.648Z,43.40
2023-03-22T10:42:32.689Z,44.00
2023-03-22T10:45:12.100Z,44.10
2023-03-22T10:47:48.428Z,44.10
2023-03-22T10:50:24.517Z,44.20
2023-03-22T10:53:09.646Z,44.30
2023-03-22T10:55:44.886Z,44.60
2023-03-22T10:58:21.701Z,44.50
2023-03-22T11:00:55.081Z,44.80
2023-03-22T11:03:38.602Z,44.50
2023-03-22T11:06:21.137Z,44.60
2023-03-22T11:08:56.290Z,45.00
2023-03-22T11:11:38.770Z,45.00
2023-03-22T11:14:12.029Z,44.80
2023-03-22T11:17:00.021Z,45.00
2023-03-22T11:19:44.665Z,45.00
2023-03-22T11:22:34.647Z,45.30
2023-03-22T11:25:07.788Z,45.50
2023-03-22T11:27:38.803Z,45.70
2023-03-22T11:30:27.766Z,45.90
2023-03-22T11:33:13.190Z,45.80
2023-03-22T11:35:46.594Z,45.80
2023-03-22T11:38:26.695Z,45.90
2023-03-22T11:41:03.461Z,45.90
2023-03-22T11:46:34.095Z,46.70
2023-03-22T11:49:07.411Z,46.60
2023-03-22T11:51:43.190Z,47.00
2023-03-22T11:54:28.337Z,47.10
2023-03-22T11:57:03.078Z,47.40
2023-03-22T12:03:12.925Z,47.50
2023-03-22T12:05:57.536Z,47.80
2023-03-22T12:08:38.132Z,47.90
2023-03-22T12:11:11.671Z,48.00
2023-03-22T12:13:47.959Z,48.30
2023-03-22T12:16:23.032Z,48.40
2023-03-22T12:19:17.507Z,48.30
2023-03-22T12:21:50.994Z,48.40
2023-03-22T12:24:27.282Z,48.60
2023-03-22T12:27:01.118Z,48.60
2023-03-22T12:29:34.130Z,48.70
2023-03-22T12:32:08.378Z,48.80
2023-03-22T12:34:45.118Z,48.80
2023-03-22T12:37:18.612Z,49.00
2023-03-22T12:40:07.499Z,49.10
2023-03-22T12:42:50.789Z,49.20
2023-03-22T12:45:18.036Z,50.00
2023-03-22T12:47:57.531Z,49.30
2023-03-22T12:50:43.227Z,49.40
2023-03-22T12:53:20.017Z,49.50
2023-03-22T12:55:53.256Z,49.60
2023-03-22T12:58:26.245Z,49.70
2023-03-22T13:01:05.898Z,49.90
2023-03-22T13:03:48.282Z,50.00
2023-03-22T13:06:47.510Z,50.10
2023-03-22T13:09:38.878Z,50.10
2023-03-22T13:12:25.692Z,50.30
2023-03-22T13:15:01.655Z,50.30
2023-03-22T13:17:36.924Z,50.50
2023-03-22T13:20:17.062Z,50.60
2023-03-22T13:22:53.447Z,50.60
2023-03-22T13:25:43.293Z,50.80
2023-03-22T13:28:32.216Z,51.10
2023-03-22T13:31:03.296Z,51.10
2023-03-22T13:33:39.384Z,51.30
2023-03-22T13:36:10.812Z,51.30
2023-03-22T13:38:46.364Z,51.30
2023-03-22T13:41:33.921Z,51.70
2023-03-22T13:44:07.218Z,51.70
2023-03-22T13:46:48.934Z,51.80
2023-03-22T13:49:38.990Z,52.10
2023-03-22T13:52:12.370Z,52.40
2023-03-22T13:54:45.930Z,52.30
2023-03-22T13:57:39.039Z,52.50
2023-03-22T14:00:29.880Z,52.80
2023-03-22T14:03:17.836Z,52.70
2023-03-22T14:05:54.561Z,52.90
2023-03-22T14:08:29.401Z,52.90
2023-03-22T14:11:08.964Z,52.90
2023-03-22T14:16:45.855Z,52.90
2023-03-22T14:19:25.094Z,53.00
